sensor_id;sensor_type;location;lat;lon;timestamp;P1;durP1;ratioP1;P2;durP2;ratioP2
21091;SDS011;10704;42.678;23.288;2023-06-24T00:02:22;14.80;;;11.88;;
21091;SDS011;10704;42.678;23.288;2023-06-24T00:04:49;19.67;;;13.98;;
21091;SDS011;10704;42.678;23.288;2023-06-24T00:07:17;18.90;;;12.93;;
21091;SDS011;10704;42.678;23.288;2023-06-24T00:09:43;18.52;;;13.60;;
21091;SDS011;10704;42.678;23.288;2023-06-24T00:12:08;14.77;;;12.23;;
21091;SDS011;10704;42.678;23.288;2023-06-24T00:14:34;18.08;;;12.45;;
21091;SDS011;10704;42.678;23.288;2023-06-24T00:24:29;17.30;;;13.73;;
21091;SDS011;10704;42.678;23.288;2023-06-24T00:26:56;18.58;;;14.40;;
21091;SDS011;10704;42.678;23.288;2023-06-24T00:29:22;22.42;;;14.73;;
21091;SDS011;10704;42.678;23.288;2023-06-24T00:31:47;19.30;;;14.70;;
21091;SDS011;10704;42.678;23.288;2023-06-24T00:34:14;22.42;;;14.50;;
21091;SDS011;10704;42.678;23.288;2023-06-24T00:36:39;21.95;;;15.90;;
21091;SDS011;10704;42.678;23.288;2023-06-24T00:39:05;26.98;;;15.57;;
21091;SDS011;10704;42.678;23.288;2023-06-24T00:44:41;20.27;;;14.95;;
21091;SDS011;10704;42.678;23.288;2023-06-24T00:50:54;22.65;;;15.20;;
21091;SDS011;10704;42.678;23.288;2023-06-24T00:53:25;21.38;;;15.88;;
21091;SDS011;10704;42.678;23.288;2023-06-24T00:55:51;21.45;;;15.93;;
21091;SDS011;10704;42.678;23.288;2023-06-24T00:58:19;19.55;;;14.70;;
21091;SDS011;10704;42.678;23.288;2023-06-24T01:04:34;22.67;;;15.68;;
21091;SDS011;10704;42.678;23.288;2023-06-24T01:10:47;21.60;;;15.77;;
21091;SDS011;10704;42.678;23.288;2023-06-24T01:13:17;24.08;;;15.65;;
21091;SDS011;10704;42.678;23.288;2023-06-24T01:15:43;20.05;;;15.40;;
21091;SDS011;10704;42.678;23.288;2023-06-24T01:37:54;23.42;;;16.42;;
21091;SDS011;10704;42.678;23.288;2023-06-24T01:40:27;19.63;;;15.40;;
21091;SDS011;10704;42.678;23.288;2023-06-24T01:42:59;23.13;;;16.00;;
21091;SDS011;10704;42.678;23.288;2023-06-24T01:45:29;22.17;;;15.20;;
21091;SDS011;10704;42.678;23.288;2023-06-24T01:48:00;25.45;;;16.25;;
21091;SDS011;10704;42.678;23.288;2023-06-24T01:54:17;27.35;;;17.27;;
21091;SDS011;10704;42.678;23.288;2023-06-24T01:56:44;28.10;;;16.73;;
21091;SDS011;10704;42.678;23.288;2023-06-24T01:59:13;24.60;;;16.42;;
21091;SDS011;10704;42.678;23.288;2023-06-24T02:01:41;24.42;;;16.45;;
21091;SDS011;10704;42.678;23.288;2023-06-24T02:04:08;24.83;;;17.20;;
21091;SDS011;10704;42.678;23.288;2023-06-24T02:06:36;28.30;;;16.92;;
21091;SDS011;10704;42.678;23.288;2023-06-24T02:09:03;28.10;;;17.95;;
21091;SDS011;10704;42.678;23.288;2023-06-24T02:15:16;22.95;;;17.67;;
21091;SDS011;10704;42.678;23.288;2023-06-24T02:17:45;22.33;;;17.23;;
21091;SDS011;10704;42.678;23.288;2023-06-24T02:24:16;22.90;;;15.93;;
21091;SDS011;10704;42.678;23.288;2023-06-24T02:26:44;23.55;;;16.52;;
21091;SDS011;10704;42.678;23.288;2023-06-24T02:29:11;23.58;;;17.38;;
21091;SDS011;10704;42.678;23.288;2023-06-24T02:38:19;23.92;;;17.88;;
21091;SDS011;10704;42.678;23.288;2023-06-24T02:40:46;23.10;;;17.73;;
21091;SDS011;10704;42.678;23.288;2023-06-24T02:43:14;26.58;;;17.65;;
21091;SDS011;10704;42.678;23.288;2023-06-24T02:45:41;24.60;;;16.83;;
21091;SDS011;10704;42.678;23.288;2023-06-24T02:48:08;22.30;;;17.23;;
21091;SDS011;10704;42.678;23.288;2023-06-24T02:50:35;22.92;;;16.25;;
21091;SDS011;10704;42.678;23.288;2023-06-24T02:53:03;25.35;;;18.10;;
21091;SDS011;10704;42.678;23.288;2023-06-24T02:55:33;26.15;;;17.95;;
21091;SDS011;10704;42.678;23.288;2023-06-24T02:58:03;25.08;;;17.35;;
21091;SDS011;10704;42.678;23.288;2023-06-24T03:00:33;25.90;;;19.73;;
21091;SDS011;10704;42.678;23.288;2023-06-24T03:03:08;21.45;;;16.85;;
21091;SDS011;10704;42.678;23.288;2023-06-24T03:05:44;25.10;;;17.83;;
21091;SDS011;10704;42.678;23.288;2023-06-24T03:08:14;26.85;;;18.48;;
21091;SDS011;10704;42.678;23.288;2023-06-24T03:10:41;26.42;;;17.88;;
21091;SDS011;10704;42.678;23.288;2023-06-24T03:13:13;23.65;;;18.00;;
21091;SDS011;10704;42.678;23.288;2023-06-24T03:15:43;25.83;;;17.63;;
21091;SDS011;10704;42.678;23.288;2023-06-24T03:18:10;32.88;;;16.98;;
21091;SDS011;10704;42.678;23.288;2023-06-24T03:20:37;27.98;;;18.15;;
21091;SDS011;10704;42.678;23.288;2023-06-24T03:23:10;24.75;;;17.30;;
21091;SDS011;10704;42.678;23.288;2023-06-24T03:25:37;21.55;;;17.17;;
21091;SDS011;10704;42.678;23.288;2023-06-24T03:28:04;24.40;;;17.60;;
21091;SDS011;10704;42.678;23.288;2023-06-24T03:30:35;23.27;;;18.70;;
21091;SDS011;10704;42.678;23.288;2023-06-24T03:33:01;25.13;;;18.02;;
21091;SDS011;10704;42.678;23.288;2023-06-24T03:43:02;27.58;;;18.20;;
21091;SDS011;10704;42.678;23.288;2023-06-24T03:45:29;24.45;;;17.73;;
21091;SDS011;10704;42.678;23.288;2023-06-24T03:47:54;28.17;;;19.30;;
21091;SDS011;10704;42.678;23.288;2023-06-24T03:50:20;22.83;;;17.75;;
21091;SDS011;10704;42.678;23.288;2023-06-24T03:52:47;27.65;;;18.50;;
21091;SDS011;10704;42.678;23.288;2023-06-24T03:55:13;24.50;;;17.73;;
21091;SDS011;10704;42.678;23.288;2023-06-24T03:57:38;24.75;;;18.58;;
21091;SDS011;10704;42.678;23.288;2023-06-24T04:00:07;27.88;;;18.20;;
21091;SDS011;10704;42.678;23.288;2023-06-24T04:02:42;27.00;;;17.88;;
21091;SDS011;10704;42.678;23.288;2023-06-24T04:05:09;25.23;;;18.02;;
21091;SDS011;10704;42.678;23.288;2023-06-24T04:07:35;24.38;;;17.08;;
21091;SDS011;10704;42.678;23.288;2023-06-24T04:10:02;21.00;;;17.45;;
21091;SDS011;10704;42.678;23.288;2023-06-24T04:16:16;22.40;;;16.40;;
21091;SDS011;10704;42.678;23.288;2023-06-24T04:18:42;23.45;;;18.20;;
21091;SDS011;10704;42.678;23.288;2023-06-24T04:21:08;24.38;;;17.38;;
21091;SDS011;10704;42.678;23.288;2023-06-24T04:23:34;24.55;;;17.33;;
21091;SDS011;10704;42.678;23.288;2023-06-24T04:26:01;27.48;;;19.27;;
21091;SDS011;10704;42.678;23.288;2023-06-24T04:38:41;30.10;;;18.90;;
21091;SDS011;10704;42.678;23.288;2023-06-24T04:41:07;22.77;;;17.20;;
21091;SDS011;10704;42.678;23.288;2023-06-24T04:43:34;22.58;;;16.65;;
21091;SDS011;10704;42.678;23.288;2023-06-24T04:46:00;24.05;;;17.85;;
21091;SDS011;10704;42.678;23.288;2023-06-24T04:48:26;22.88;;;17.75;;
21091;SDS011;10704;42.678;23.288;2023-06-24T04:50:52;25.50;;;17.13;;
21091;SDS011;10704;42.678;23.288;2023-06-24T04:53:20;22.10;;;17.30;;
21091;SDS011;10704;42.678;23.288;2023-06-24T04:55:46;21.40;;;16.13;;
21091;SDS011;10704;42.678;23.288;2023-06-24T04:58:12;24.85;;;17.70;;
21091;SDS011;10704;42.678;23.288;2023-06-24T05:00:38;21.05;;;16.35;;
21091;SDS011;10704;42.678;23.288;2023-06-24T05:03:04;22.65;;;17.17;;
21091;SDS011;10704;42.678;23.288;2023-06-24T05:05:31;24.63;;;17.55;;
21091;SDS011;10704;42.678;23.288;2023-06-24T05:07:56;23.17;;;16.50;;
21091;SDS011;10704;42.678;23.288;2023-06-24T05:10:22;22.10;;;16.85;;
21091;SDS011;10704;42.678;23.288;2023-06-24T05:12:48;21.92;;;16.00;;
21091;SDS011;10704;42.678;23.288;2023-06-24T05:15:14;20.85;;;16.40;;
21091;SDS011;10704;42.678;23.288;2023-06-24T05:17:42;21.77;;;16.13;;
21091;SDS011;10704;42.678;23.288;2023-06-24T05:20:08;19.05;;;15.45;;
21091;SDS011;10704;42.678;23.288;2023-06-24T05:22:34;20.67;;;16.15;;
21091;SDS011;10704;42.678;23.288;2023-06-24T05:25:00;22.80;;;16.67;;
21091;SDS011;10704;42.678;23.288;2023-06-24T05:27:26;22.08;;;16.50;;
21091;SDS011;10704;42.678;23.288;2023-06-24T05:29:53;23.33;;;17.48;;
21091;SDS011;10704;42.678;23.288;2023-06-24T05:32:19;21.40;;;17.30;;
21091;SDS011;10704;42.678;23.288;2023-06-24T05:34:45;21.23;;;16.00;;
21091;SDS011;10704;42.678;23.288;2023-06-24T05:37:11;24.70;;;16.90;;
21091;SDS011;10704;42.678;23.288;2023-06-24T05:39:37;20.70;;;16.90;;
21091;SDS011;10704;42.678;23.288;2023-06-24T05:42:03;23.60;;;17.25;;
21091;SDS011;10704;42.678;23.288;2023-06-24T05:44:29;22.23;;;16.77;;
21091;SDS011;10704;42.678;23.288;2023-06-24T05:46:55;22.90;;;17.27;;
21091;SDS011;10704;42.678;23.288;2023-06-24T05:49:21;20.00;;;16.20;;
21091;SDS011;10704;42.678;23.288;2023-06-24T05:51:47;21.73;;;17.08;;
21091;SDS011;10704;42.678;23.288;2023-06-24T05:54:12;26.00;;;16.80;;
21091;SDS011;10704;42.678;23.288;2023-06-24T06:03:25;21.45;;;16.95;;
21091;SDS011;10704;42.678;23.288;2023-06-24T06:05:51;22.13;;;16.27;;
21091;SDS011;10704;42.678;23.288;2023-06-24T06:11:59;21.17;;;16.38;;
21091;SDS011;10704;42.678;23.288;2023-06-24T06:18:11;24.90;;;16.80;;
21091;SDS011;10704;42.678;23.288;2023-06-24T06:20:37;22.10;;;14.85;;
21091;SDS011;10704;42.678;23.288;2023-06-24T06:23:03;18.02;;;14.55;;
21091;SDS011;10704;42.678;23.288;2023-06-24T06:25:29;19.15;;;15.38;;
21091;SDS011;10704;42.678;23.288;2023-06-24T06:27:55;16.73;;;13.32;;
21091;SDS011;10704;42.678;23.288;2023-06-24T06:30:21;21.17;;;13.90;;
21091;SDS011;10704;42.678;23.288;2023-06-24T06:32:46;18.60;;;13.30;;
21091;SDS011;10704;42.678;23.288;2023-06-24T06:35:12;20.77;;;14.30;;
21091;SDS011;10704;42.678;23.288;2023-06-24T06:37:38;18.80;;;14.77;;
21091;SDS011;10704;42.678;23.288;2023-06-24T06:40:04;20.10;;;14.88;;
21091;SDS011;10704;42.678;23.288;2023-06-24T06:42:31;18.15;;;13.80;;
21091;SDS011;10704;42.678;23.288;2023-06-24T06:44:56;17.25;;;13.88;;
21091;SDS011;10704;42.678;23.288;2023-06-24T06:47:22;20.27;;;13.93;;
21091;SDS011;10704;42.678;23.288;2023-06-24T06:49:48;18.05;;;13.75;;
21091;SDS011;10704;42.678;23.288;2023-06-24T06:52:14;17.10;;;14.20;;
21091;SDS011;10704;42.678;23.288;2023-06-24T06:54:40;19.10;;;14.43;;
21091;SDS011;10704;42.678;23.288;2023-06-24T06:57:06;16.63;;;14.75;;
21091;SDS011;10704;42.678;23.288;2023-06-24T06:59:31;19.17;;;15.45;;
21091;SDS011;10704;42.678;23.288;2023-06-24T07:01:57;18.63;;;14.77;;
21091;SDS011;10704;42.678;23.288;2023-06-24T07:04:23;18.70;;;13.85;;
21091;SDS011;10704;42.678;23.288;2023-06-24T07:06:50;16.70;;;13.25;;
21091;SDS011;10704;42.678;23.288;2023-06-24T07:09:16;19.10;;;14.60;;
21091;SDS011;10704;42.678;23.288;2023-06-24T07:11:42;16.15;;;13.57;;
21091;SDS011;10704;42.678;23.288;2023-06-24T07:14:08;16.70;;;14.35;;
21091;SDS011;10704;42.678;23.288;2023-06-24T07:16:34;17.30;;;14.73;;
21091;SDS011;10704;42.678;23.288;2023-06-24T07:19:01;19.55;;;14.77;;
21091;SDS011;10704;42.678;23.288;2023-06-24T07:21:26;22.08;;;14.95;;
21091;SDS011;10704;42.678;23.288;2023-06-24T07:27:39;18.92;;;15.18;;
21091;SDS011;10704;42.678;23.288;2023-06-24T07:40:17;18.92;;;14.05;;
21091;SDS011;10704;42.678;23.288;2023-06-24T07:42:42;16.90;;;13.55;;
21091;SDS011;10704;42.678;23.288;2023-06-24T07:48:55;17.52;;;12.73;;
21091;SDS011;10704;42.678;23.288;2023-06-24T07:51:21;17.80;;;14.30;;
21091;SDS011;10704;42.678;23.288;2023-06-24T07:53:47;18.23;;;14.40;;
21091;SDS011;10704;42.678;23.288;2023-06-24T07:56:13;21.08;;;13.88;;
21091;SDS011;10704;42.678;23.288;2023-06-24T08:02:34;17.08;;;13.45;;
21091;SDS011;10704;42.678;23.288;2023-06-24T08:05:00;16.63;;;14.13;;
21091;SDS011;10704;42.678;23.288;2023-06-24T08:07:26;17.30;;;14.88;;
21091;SDS011;10704;42.678;23.288;2023-06-24T08:09:52;16.92;;;14.05;;
21091;SDS011;10704;42.678;23.288;2023-06-24T08:12:18;18.70;;;16.42;;
21091;SDS011;10704;42.678;23.288;2023-06-24T08:14:44;20.25;;;14.90;;
21091;SDS011;10704;42.678;23.288;2023-06-24T08:17:10;17.30;;;13.90;;
21091;SDS011;10704;42.678;23.288;2023-06-24T08:26:42;19.42;;;14.35;;
21091;SDS011;10704;42.678;23.288;2023-06-24T08:29:08;18.70;;;15.07;;
21091;SDS011;10704;42.678;23.288;2023-06-24T08:31:34;15.60;;;13.88;;
21091;SDS011;10704;42.678;23.288;2023-06-24T08:34:00;20.38;;;15.55;;
21091;SDS011;10704;42.678;23.288;2023-06-24T08:36:31;16.23;;;13.73;;
21091;SDS011;10704;42.678;23.288;2023-06-24T08:42:45;17.13;;;14.18;;
21091;SDS011;10704;42.678;23.288;2023-06-24T08:45:10;16.95;;;14.40;;
21091;SDS011;10704;42.678;23.288;2023-06-24T08:47:36;16.42;;;14.52;;
21091;SDS011;10704;42.678;23.288;2023-06-24T08:50:08;17.25;;;14.60;;
21091;SDS011;10704;42.678;23.288;2023-06-24T08:52:37;18.98;;;15.20;;
21091;SDS011;10704;42.678;23.288;2023-06-24T08:55:15;19.90;;;15.73;;
21091;SDS011;10704;42.678;23.288;2023-06-24T08:57:42;16.90;;;13.93;;
21091;SDS011;10704;42.678;23.288;2023-06-24T09:00:08;16.73;;;14.90;;
21091;SDS011;10704;42.678;23.288;2023-06-24T09:05:24;18.38;;;14.68;;
21091;SDS011;10704;42.678;23.288;2023-06-24T09:07:50;16.42;;;14.02;;
21091;SDS011;10704;42.678;23.288;2023-06-24T09:10:29;16.42;;;14.48;;
21091;SDS011;10704;42.678;23.288;2023-06-24T09:12:56;18.45;;;15.07;;
21091;SDS011;10704;42.678;23.288;2023-06-24T09:15:22;17.65;;;14.43;;
21091;SDS011;10704;42.678;23.288;2023-06-24T09:17:48;18.48;;;13.85;;
21091;SDS011;10704;42.678;23.288;2023-06-24T09:20:14;15.57;;;13.40;;
21091;SDS011;10704;42.678;23.288;2023-06-24T09:22:45;18.30;;;13.90;;
21091;SDS011;10704;42.678;23.288;2023-06-24T09:31:48;16.50;;;14.48;;
21091;SDS011;10704;42.678;23.288;2023-06-24T09:34:14;16.25;;;14.27;;
21091;SDS011;10704;42.678;23.288;2023-06-24T09:36:44;17.75;;;15.05;;
21091;SDS011;10704;42.678;23.288;2023-06-24T09:39:16;16.20;;;14.60;;
21091;SDS011;10704;42.678;23.288;2023-06-24T09:41:42;16.33;;;14.70;;
21091;SDS011;10704;42.678;23.288;2023-06-24T09:44:11;18.55;;;15.38;;
21091;SDS011;10704;42.678;23.288;2023-06-24T09:46:37;19.30;;;13.68;;
21091;SDS011;10704;42.678;23.288;2023-06-24T09:49:04;15.77;;;13.27;;
21091;SDS011;10704;42.678;23.288;2023-06-24T09:51:32;19.15;;;14.20;;
21091;SDS011;10704;42.678;23.288;2023-06-24T09:57:50;15.50;;;13.90;;
21091;SDS011;10704;42.678;23.288;2023-06-24T10:00:19;15.73;;;13.05;;
21091;SDS011;10704;42.678;23.288;2023-06-24T10:06:15;13.90;;;12.45;;
21091;SDS011;10704;42.678;23.288;2023-06-24T10:08:41;17.88;;;13.18;;
21091;SDS011;10704;42.678;23.288;2023-06-24T10:11:08;14.80;;;12.65;;
21091;SDS011;10704;42.678;23.288;2023-06-24T10:17:21;19.08;;;12.05;;
21091;SDS011;10704;42.678;23.288;2023-06-24T10:19:46;16.52;;;12.60;;
21091;SDS011;10704;42.678;23.288;2023-06-24T10:26:00;15.20;;;12.57;;
21091;SDS011;10704;42.678;23.288;2023-06-24T10:36:01;15.40;;;11.05;;
21091;SDS011;10704;42.678;23.288;2023-06-24T10:41:32;14.27;;;12.38;;
21091;SDS011;10704;42.678;23.288;2023-06-24T10:46:54;14.93;;;12.02;;
21091;SDS011;10704;42.678;23.288;2023-06-24T10:49:20;15.02;;;11.77;;
21091;SDS011;10704;42.678;23.288;2023-06-24T10:51:45;13.98;;;11.35;;
21091;SDS011;10704;42.678;23.288;2023-06-24T10:54:11;13.88;;;12.48;;
21091;SDS011;10704;42.678;23.288;2023-06-24T11:03:45;14.93;;;10.82;;
21091;SDS011;10704;42.678;23.288;2023-06-24T11:06:12;13.40;;;10.30;;
21091;SDS011;10704;42.678;23.288;2023-06-24T11:08:44;13.57;;;9.98;;
21091;SDS011;10704;42.678;23.288;2023-06-24T11:11:17;11.50;;;10.30;;
21091;SDS011;10704;42.678;23.288;2023-06-24T11:13:47;13.63;;;10.90;;
21091;SDS011;10704;42.678;23.288;2023-06-24T11:16:13;11.10;;;9.25;;
21091;SDS011;10704;42.678;23.288;2023-06-24T11:18:39;11.80;;;9.88;;
21091;SDS011;10704;42.678;23.288;2023-06-24T11:21:08;9.90;;;8.77;;
21091;SDS011;10704;42.678;23.288;2023-06-24T11:23:34;15.68;;;9.50;;
21091;SDS011;10704;42.678;23.288;2023-06-24T11:26:02;12.88;;;9.15;;
21091;SDS011;10704;42.678;23.288;2023-06-24T11:28:30;11.05;;;8.98;;
21091;SDS011;10704;42.678;23.288;2023-06-24T11:31:05;10.98;;;9.13;;
21091;SDS011;10704;42.678;23.288;2023-06-24T11:33:31;13.07;;;9.68;;
21091;SDS011;10704;42.678;23.288;2023-06-24T11:35:57;12.98;;;10.35;;
21091;SDS011;10704;42.678;23.288;2023-06-24T11:38:23;11.38;;;9.90;;
21091;SDS011;10704;42.678;23.288;2023-06-24T11:40:52;15.32;;;9.40;;
21091;SDS011;10704;42.678;23.288;2023-06-24T11:43:18;11.40;;;10.18;;
21091;SDS011;10704;42.678;23.288;2023-06-24T11:45:47;12.00;;;9.93;;
21091;SDS011;10704;42.678;23.288;2023-06-24T11:48:13;16.58;;;10.48;;
21091;SDS011;10704;42.678;23.288;2023-06-24T11:50:39;15.25;;;10.75;;
21091;SDS011;10704;42.678;23.288;2023-06-24T11:53:05;11.82;;;9.45;;
21091;SDS011;10704;42.678;23.288;2023-06-24T11:55:31;11.25;;;10.05;;
21091;SDS011;10704;42.678;23.288;2023-06-24T11:57:58;14.50;;;9.45;;
21091;SDS011;10704;42.678;23.288;2023-06-24T12:00:39;10.80;;;9.15;;
21091;SDS011;10704;42.678;23.288;2023-06-24T12:03:08;11.60;;;9.85;;
21091;SDS011;10704;42.678;23.288;2023-06-24T12:05:36;13.18;;;9.35;;
21091;SDS011;10704;42.678;23.288;2023-06-24T12:08:03;10.98;;;9.52;;
21091;SDS011;10704;42.678;23.288;2023-06-24T12:10:34;11.98;;;9.32;;
21091;SDS011;10704;42.678;23.288;2023-06-24T12:13:03;10.77;;;8.75;;
21091;SDS011;10704;42.678;23.288;2023-06-24T12:15:31;11.25;;;9.40;;
21091;SDS011;10704;42.678;23.288;2023-06-24T12:17:57;11.10;;;9.48;;
21091;SDS011;10704;42.678;23.288;2023-06-24T12:20:24;13.55;;;9.27;;
21091;SDS011;10704;42.678;23.288;2023-06-24T12:22:50;10.70;;;8.73;;
21091;SDS011;10704;42.678;23.288;2023-06-24T12:25:16;11.23;;;9.35;;
21091;SDS011;10704;42.678;23.288;2023-06-24T12:27:43;9.70;;;8.48;;
21091;SDS011;10704;42.678;23.288;2023-06-24T12:30:10;12.20;;;9.45;;
21091;SDS011;10704;42.678;23.288;2023-06-24T12:32:36;11.38;;;9.20;;
21091;SDS011;10704;42.678;23.288;2023-06-24T12:35:03;12.75;;;10.27;;
21091;SDS011;10704;42.678;23.288;2023-06-24T12:37:33;15.50;;;10.07;;
21091;SDS011;10704;42.678;23.288;2023-06-24T12:40:05;12.68;;;9.48;;
21091;SDS011;10704;42.678;23.288;2023-06-24T12:42:31;10.68;;;9.18;;
21091;SDS011;10704;42.678;23.288;2023-06-24T12:44:57;12.20;;;9.65;;
21091;SDS011;10704;42.678;23.288;2023-06-24T12:47:24;15.00;;;9.65;;
21091;SDS011;10704;42.678;23.288;2023-06-24T12:49:50;11.00;;;9.07;;
21091;SDS011;10704;42.678;23.288;2023-06-24T12:52:16;11.50;;;8.90;;
21091;SDS011;10704;42.678;23.288;2023-06-24T12:54:41;14.10;;;9.55;;
21091;SDS011;10704;42.678;23.288;2023-06-24T12:57:07;11.50;;;9.70;;
21091;SDS011;10704;42.678;23.288;2023-06-24T12:59:33;12.52;;;9.60;;
21091;SDS011;10704;42.678;23.288;2023-06-24T13:05:22;11.10;;;9.52;;
21091;SDS011;10704;42.678;23.288;2023-06-24T13:19:52;20.35;;;11.07;;
21091;SDS011;10704;42.678;23.288;2023-06-24T13:22:18;16.05;;;11.63;;
21091;SDS011;10704;42.678;23.288;2023-06-24T13:28:31;18.40;;;11.68;;
21091;SDS011;10704;42.678;23.288;2023-06-24T13:30:57;18.70;;;11.90;;
21091;SDS011;10704;42.678;23.288;2023-06-24T13:33:23;16.88;;;9.95;;
21091;SDS011;10704;42.678;23.288;2023-06-24T13:35:50;17.40;;;10.75;;
21091;SDS011;10704;42.678;23.288;2023-06-24T13:38:17;16.88;;;9.70;;
21091;SDS011;10704;42.678;23.288;2023-06-24T13:40:43;15.18;;;7.88;;
21091;SDS011;10704;42.678;23.288;2023-06-24T13:43:09;17.33;;;8.70;;
21091;SDS011;10704;42.678;23.288;2023-06-24T13:45:35;23.60;;;8.13;;
21091;SDS011;10704;42.678;23.288;2023-06-24T13:48:00;20.05;;;9.43;;
21091;SDS011;10704;42.678;23.288;2023-06-24T13:50:27;22.20;;;8.00;;
21091;SDS011;10704;42.678;23.288;2023-06-24T13:52:54;22.85;;;9.30;;
21091;SDS011;10704;42.678;23.288;2023-06-24T14:02:03;22.10;;;9.65;;
21091;SDS011;10704;42.678;23.288;2023-06-24T14:04:30;23.10;;;9.75;;
21091;SDS011;10704;42.678;23.288;2023-06-24T14:06:56;18.20;;;7.95;;
21091;SDS011;10704;42.678;23.288;2023-06-24T14:09:21;16.63;;;7.03;;
21091;SDS011;10704;42.678;23.288;2023-06-24T14:11:47;15.82;;;7.30;;
21091;SDS011;10704;42.678;23.288;2023-06-24T14:14:13;13.38;;;6.85;;
21091;SDS011;10704;42.678;23.288;2023-06-24T14:19:34;14.63;;;6.35;;
21091;SDS011;10704;42.678;23.288;2023-06-24T14:22:00;14.00;;;6.22;;
21091;SDS011;10704;42.678;23.288;2023-06-24T14:31:00;13.20;;;6.22;;
21091;SDS011;10704;42.678;23.288;2023-06-24T14:43:41;15.50;;;7.85;;
21091;SDS011;10704;42.678;23.288;2023-06-24T14:46:07;14.27;;;7.93;;
21091;SDS011;10704;42.678;23.288;2023-06-24T14:48:34;15.40;;;8.07;;
21091;SDS011;10704;42.678;23.288;2023-06-24T14:51:01;15.02;;;7.40;;
21091;SDS011;10704;42.678;23.288;2023-06-24T14:57:14;17.38;;;7.57;;
21091;SDS011;10704;42.678;23.288;2023-06-24T14:59:42;19.38;;;8.10;;
21091;SDS011;10704;42.678;23.288;2023-06-24T15:02:08;20.25;;;8.60;;
21091;SDS011;10704;42.678;23.288;2023-06-24T15:04:37;16.77;;;7.97;;
21091;SDS011;10704;42.678;23.288;2023-06-24T15:07:06;19.42;;;8.23;;
21091;SDS011;10704;42.678;23.288;2023-06-24T15:09:32;17.70;;;8.02;;
21091;SDS011;10704;42.678;23.288;2023-06-24T15:11:59;17.35;;;8.50;;
21091;SDS011;10704;42.678;23.288;2023-06-24T15:14:25;20.73;;;8.43;;
21091;SDS011;10704;42.678;23.288;2023-06-24T15:16:51;18.40;;;8.63;;
21091;SDS011;10704;42.678;23.288;2023-06-24T15:19:19;17.20;;;8.80;;
21091;SDS011;10704;42.678;23.288;2023-06-24T15:21:45;15.35;;;8.30;;
21091;SDS011;10704;42.678;23.288;2023-06-24T15:24:11;19.23;;;9.43;;
21091;SDS011;10704;42.678;23.288;2023-06-24T15:26:36;22.02;;;9.15;;
21091;SDS011;10704;42.678;23.288;2023-06-24T15:29:02;15.98;;;8.52;;
21091;SDS011;10704;42.678;23.288;2023-06-24T15:31:29;17.73;;;9.13;;
21091;SDS011;10704;42.678;23.288;2023-06-24T15:33:55;17.90;;;10.40;;
21091;SDS011;10704;42.678;23.288;2023-06-24T15:36:21;29.75;;;16.45;;
21091;SDS011;10704;42.678;23.288;2023-06-24T15:38:47;24.08;;;12.15;;
21091;SDS011;10704;42.678;23.288;2023-06-24T15:41:13;17.65;;;12.00;;
21091;SDS011;10704;42.678;23.288;2023-06-24T15:43:39;24.10;;;13.82;;
21091;SDS011;10704;42.678;23.288;2023-06-24T15:46:05;21.23;;;11.32;;
21091;SDS011;10704;42.678;23.288;2023-06-24T15:48:31;18.00;;;9.52;;
21091;SDS011;10704;42.678;23.288;2023-06-24T15:50:57;19.23;;;9.77;;
21091;SDS011;10704;42.678;23.288;2023-06-24T15:53:24;24.33;;;10.15;;
21091;SDS011;10704;42.678;23.288;2023-06-24T15:55:51;19.77;;;9.05;;
21091;SDS011;10704;42.678;23.288;2023-06-24T15:58:17;19.75;;;9.07;;
21091;SDS011;10704;42.678;23.288;2023-06-24T16:00:42;19.63;;;8.40;;
21091;SDS011;10704;42.678;23.288;2023-06-24T16:03:08;18.52;;;8.85;;
21091;SDS011;10704;42.678;23.288;2023-06-24T16:05:34;17.90;;;7.78;;
21091;SDS011;10704;42.678;23.288;2023-06-24T16:08:00;23.23;;;8.57;;
21091;SDS011;10704;42.678;23.288;2023-06-24T16:10:26;42.85;;;11.18;;
21091;SDS011;10704;42.678;23.288;2023-06-24T16:12:52;16.50;;;8.55;;
21091;SDS011;10704;42.678;23.288;2023-06-24T16:15:20;17.90;;;8.70;;
21091;SDS011;10704;42.678;23.288;2023-06-24T16:17:46;18.95;;;8.65;;
21091;SDS011;10704;42.678;23.288;2023-06-24T16:20:12;15.98;;;8.80;;
21091;SDS011;10704;42.678;23.288;2023-06-24T16:22:42;18.55;;;8.65;;
21091;SDS011;10704;42.678;23.288;2023-06-24T16:25:11;20.40;;;8.32;;
21091;SDS011;10704;42.678;23.288;2023-06-24T16:27:37;21.50;;;9.77;;
21091;SDS011;10704;42.678;23.288;2023-06-24T16:30:04;18.45;;;9.50;;
21091;SDS011;10704;42.678;23.288;2023-06-24T16:32:30;18.67;;;9.65;;
21091;SDS011;10704;42.678;23.288;2023-06-24T16:34:56;21.13;;;11.18;;
21091;SDS011;10704;42.678;23.288;2023-06-24T16:37:22;22.23;;;11.15;;
21091;SDS011;10704;42.678;23.288;2023-06-24T16:39:48;21.83;;;10.25;;
21091;SDS011;10704;42.678;23.288;2023-06-24T16:42:14;19.77;;;11.13;;
21091;SDS011;10704;42.678;23.288;2023-06-24T16:44:39;23.50;;;14.13;;
21091;SDS011;10704;42.678;23.288;2023-06-24T16:47:05;20.45;;;12.05;;
21091;SDS011;10704;42.678;23.288;2023-06-24T16:49:31;19.52;;;11.35;;
21091;SDS011;10704;42.678;23.288;2023-06-24T16:51:57;23.80;;;11.18;;
21091;SDS011;10704;42.678;23.288;2023-06-24T16:54:24;27.52;;;10.90;;
21091;SDS011;10704;42.678;23.288;2023-06-24T16:56:51;20.83;;;9.93;;
21091;SDS011;10704;42.678;23.288;2023-06-24T16:59:17;17.92;;;10.65;;
21091;SDS011;10704;42.678;23.288;2023-06-24T17:01:43;17.80;;;9.77;;
21091;SDS011;10704;42.678;23.288;2023-06-24T17:04:08;19.50;;;9.52;;
21091;SDS011;10704;42.678;23.288;2023-06-24T17:06:35;16.40;;;10.13;;
21091;SDS011;10704;42.678;23.288;2023-06-24T17:09:01;17.52;;;10.10;;
21091;SDS011;10704;42.678;23.288;2023-06-24T17:11:28;19.75;;;10.75;;
21091;SDS011;10704;42.678;23.288;2023-06-24T17:13:54;25.42;;;10.65;;
21091;SDS011;10704;42.678;23.288;2023-06-24T17:16:21;22.23;;;10.98;;
21091;SDS011;10704;42.678;23.288;2023-06-24T17:18:47;20.10;;;11.95;;
21091;SDS011;10704;42.678;23.288;2023-06-24T17:21:12;20.40;;;11.00;;
21091;SDS011;10704;42.678;23.288;2023-06-24T17:23:39;18.27;;;10.77;;
21091;SDS011;10704;42.678;23.288;2023-06-24T17:29:55;21.45;;;10.10;;
21091;SDS011;10704;42.678;23.288;2023-06-24T17:38:49;15.13;;;9.85;;
21091;SDS011;10704;42.678;23.288;2023-06-24T17:43:59;16.55;;;10.20;;
21091;SDS011;10704;42.678;23.288;2023-06-24T17:50:13;16.88;;;9.70;;
21091;SDS011;10704;42.678;23.288;2023-06-24T17:52:39;14.80;;;10.38;;
21091;SDS011;10704;42.678;23.288;2023-06-24T17:55:07;18.38;;;11.27;;
21091;SDS011;10704;42.678;23.288;2023-06-24T18:01:21;16.33;;;9.98;;
21091;SDS011;10704;42.678;23.288;2023-06-24T18:03:50;17.48;;;9.93;;
21091;SDS011;10704;42.678;23.288;2023-06-24T18:06:17;20.02;;;10.45;;
21091;SDS011;10704;42.678;23.288;2023-06-24T18:12:30;18.55;;;9.82;;
21091;SDS011;10704;42.678;23.288;2023-06-24T18:18:43;21.08;;;10.57;;
21091;SDS011;10704;42.678;23.288;2023-06-24T18:21:09;20.15;;;10.38;;
21091;SDS011;10704;42.678;23.288;2023-06-24T18:23:37;16.48;;;10.77;;